sensor_id;sensor_type;location;lat;lon;timestamp;temperature;humidity
24035;DHT22;12242;50.952;4.678;2022-10-31T00:01:36;17.00;99.90
24035;DHT22;12242;50.952;4.678;2022-10-31T00:04:04;17.10;99.90
24035;DHT22;12242;50.952;4.678;2022-10-31T00:06:32;17.10;99.90
24035;DHT22;12242;50.952;4.678;2022-10-31T00:09:05;17.10;99.90
24035;DHT22;12242;50.952;4.678;2022-10-31T00:11:37;17.10;99.90
24035;DHT22;12242;50.952;4.678;2022-10-31T00:14:04;17.00;99.90
24035;DHT22;12242;50.952;4.678;2022-10-31T00:16:32;17.00;99.90
24035;DHT22;12242;50.952;4.678;2022-10-31T00:19:02;16.90;99.90
24035;DHT22;12242;50.952;4.678;2022-10-31T00:21:30;16.90;99.90
24035;DHT22;12242;50.952;4.678;2022-10-31T00:23:58;16.90;99.90
24035;DHT22;12242;50.952;4.678;2022-10-31T00:26:28;16.90;99.90
24035;DHT22;12242;50.952;4.678;2022-10-31T00:28:55;16.90;99.90
24035;DHT22;12242;50.952;4.678;2022-10-31T00:31:23;17.00;99.90
24035;DHT22;12242;50.952;4.678;2022-10-31T00:33:53;16.90;99.90
24035;DHT22;12242;50.952;4.678;2022-10-31T00:36:21;16.90;99.90
24035;DHT22;12242;50.952;4.678;2022-10-31T00:38:53;16.80;99.90
24035;DHT22;12242;50.952;4.678;2022-10-31T00:41:20;16.90;99.90
24035;DHT22;12242;50.952;4.678;2022-10-31T00:43:49;16.90;99.90
24035;DHT22;12242;50.952;4.678;2022-10-31T00:46:19;16.80;99.90
24035;DHT22;12242;50.952;4.678;2022-10-31T00:48:48;16.80;99.90
24035;DHT22;12242;50.952;4.678;2022-10-31T00:51:16;16.70;99.90
24035;DHT22;12242;50.952;4.678;2022-10-31T00:53:43;16.80;99.90
24035;DHT22;12242;50.952;4.678;2022-10-31T00:56:12;16.70;99.90
24035;DHT22;12242;50.952;4.678;2022-10-31T00:58:42;16.70;99.90
24035;DHT22;12242;50.952;4.678;2022-10-31T01:01:09;16.70;99.90
24035;DHT22;12242;50.952;4.678;2022-10-31T01:03:37;16.70;99.90
24035;DHT22;12242;50.952;4.678;2022-10-31T01:06:08;16.60;99.90
24035;DHT22;12242;50.952;4.678;2022-10-31T01:08:37;16.50;99.90
24035;DHT22;12242;50.952;4.678;2022-10-31T01:13:37;16.30;99.90
24035;DHT22;12242;50.952;4.678;2022-10-31T01:16:06;16.20;99.90
24035;DHT22;12242;50.952;4.678;2022-10-31T01:18:34;16.20;99.90
24035;DHT22;12242;50.952;4.678;2022-10-31T01:21:03;16.20;99.90
24035;DHT22;12242;50.952;4.678;2022-10-31T01:23:32;16.20;99.90
24035;DHT22;12242;50.952;4.678;2022-10-31T01:26:05;16.20;99.90
24035;DHT22;12242;50.952;4.678;2022-10-31T01:28:35;16.20;99.90
24035;DHT22;12242;50.952;4.678;2022-10-31T01:31:05;16.20;99.90
24035;DHT22;12242;50.952;4.678;2022-10-31T01:33:33;16.10;99.90
24035;DHT22;12242;50.952;4.678;2022-10-31T01:36:01;16.20;99.90
24035;DHT22;12242;50.952;4.678;2022-10-31T01:38:37;16.20;99.90
24035;DHT22;12242;50.952;4.678;2022-10-31T01:41:07;16.20;99.90
24035;DHT22;12242;50.952;4.678;2022-10-31T01:43:56;16.10;99.90
24035;DHT22;12242;50.952;4.678;2022-10-31T01:48:58;16.10;99.90
24035;DHT22;12242;50.952;4.678;2022-10-31T01:51:33;16.10;99.90
24035;DHT22;12242;50.952;4.678;2022-10-31T01:54:05;16.00;99.90
24035;DHT22;12242;50.952;4.678;2022-10-31T01:56:34;16.00;99.90
24035;DHT22;12242;50.952;4.678;2022-10-31T01:59:08;16.00;99.90
24035;DHT22;12242;50.952;4.678;2022-10-31T02:01:37;15.90;99.90
24035;DHT22;12242;50.952;4.678;2022-10-31T02:04:06;15.80;99.90
24035;DHT22;12242;50.952;4.678;2022-10-31T02:07:08;15.70;99.90
24035;DHT22;12242;50.952;4.678;2022-10-31T02:09:34;15.60;99.90
24035;DHT22;12242;50.952;4.678;2022-10-31T02:12:02;15.60;99.90
24035;DHT22;12242;50.952;4.678;2022-10-31T02:14:31;15.60;99.90
24035;DHT22;12242;50.952;4.678;2022-10-31T02:16:58;15.70;99.90
24035;DHT22;12242;50.952;4.678;2022-10-31T02:19:56;15.60;99.90
24035;DHT22;12242;50.952;4.678;2022-10-31T02:22:30;15.50;99.90
24035;DHT22;12242;50.952;4.678;2022-10-31T02:33:52;15.40;99.90
24035;DHT22;12242;50.952;4.678;2022-10-31T02:36:32;15.30;99.90
24035;DHT22;12242;50.952;4.678;2022-10-31T02:39:12;15.20;99.90
24035;DHT22;12242;50.952;4.678;2022-10-31T02:42:01;15.20;99.90
24035;DHT22;12242;50.952;4.678;2022-10-31T02:44:45;15.10;99.90
24035;DHT22;12242;50.952;4.678;2022-10-31T02:47:19;15.10;99.90
24035;DHT22;12242;50.952;4.678;2022-10-31T02:52:35;15.00;99.90
24035;DHT22;12242;50.952;4.678;2022-10-31T02:58:06;14.90;99.90
24035;DHT22;12242;50.952;4.678;2022-10-31T03:06:54;14.80;99.90
24035;DHT22;12242;50.952;4.678;2022-10-31T03:09:38;14.70;99.90
24035;DHT22;12242;50.952;4.678;2022-10-31T03:15:04;14.60;99.90
24035;DHT22;12242;50.952;4.678;2022-10-31T03:20:56;14.80;99.90
24035;DHT22;12242;50.952;4.678;2022-10-31T03:23:28;14.80;99.90
24035;DHT22;12242;50.952;4.678;2022-10-31T03:25:58;14.90;99.90
24035;DHT22;12242;50.952;4.678;2022-10-31T03:28:30;14.80;99.90
24035;DHT22;12242;50.952;4.678;2022-10-31T03:31:01;14.80;99.90
24035;DHT22;12242;50.952;4.678;2022-10-31T03:33:36;14.80;99.90
24035;DHT22;12242;50.952;4.678;2022-10-31T03:36:07;14.80;99.90
24035;DHT22;12242;50.952;4.678;2022-10-31T03:38:36;14.70;99.90
24035;DHT22;12242;50.952;4.678;2022-10-31T03:41:06;14.70;99.90
24035;DHT22;12242;50.952;4.678;2022-10-31T03:43:38;14.80;99.90
24035;DHT22;12242;50.952;4.678;2022-10-31T03:46:07;14.90;99.90
24035;DHT22;12242;50.952;4.678;2022-10-31T03:48:35;14.90;99.90
24035;DHT22;12242;50.952;4.678;2022-10-31T03:51:15;14.80;99.90
24035;DHT22;12242;50.952;4.678;2022-10-31T03:57:48;14.60;99.90
24035;DHT22;12242;50.952;4.678;2022-10-31T04:00:05;14.70;99.90
24035;DHT22;12242;50.952;4.678;2022-10-31T04:02:34;14.60;99.90
24035;DHT22;12242;50.952;4.678;2022-10-31T04:05:04;14.50;99.90
24035;DHT22;12242;50.952;4.678;2022-10-31T04:07:37;14.60;99.90
24035;DHT22;12242;50.952;4.678;2022-10-31T04:10:10;14.60;99.90
24035;DHT22;12242;50.952;4.678;2022-10-31T04:12:38;14.70;99.90
24035;DHT22;12242;50.952;4.678;2022-10-31T04:15:07;14.60;99.90
24035;DHT22;12242;50.952;4.678;2022-10-31T04:17:39;14.50;99.90
24035;DHT22;12242;50.952;4.678;2022-10-31T04:20:08;14.60;99.90
24035;DHT22;12242;50.952;4.678;2022-10-31T04:22:35;14.60;99.90
24035;DHT22;12242;50.952;4.678;2022-10-31T04:25:03;14.70;99.90
24035;DHT22;12242;50.952;4.678;2022-10-31T04:27:30;14.60;99.90
24035;DHT22;12242;50.952;4.678;2022-10-31T04:29:58;14.60;99.90
24035;DHT22;12242;50.952;4.678;2022-10-31T04:32:26;14.50;99.90
24035;DHT22;12242;50.952;4.678;2022-10-31T04:34:56;14.50;99.90
24035;DHT22;12242;50.952;4.678;2022-10-31T04:37:23;14.40;99.90
24035;DHT22;12242;50.952;4.678;2022-10-31T04:39:52;14.30;99.90
24035;DHT22;12242;50.952;4.678;2022-10-31T04:42:20;14.30;99.90
24035;DHT22;12242;50.952;4.678;2022-10-31T04:44:47;14.40;99.90
24035;DHT22;12242;50.952;4.678;2022-10-31T04:47:17;14.40;99.90
24035;DHT22;12242;50.952;4.678;2022-10-31T04:49:46;14.40;99.90
24035;DHT22;12242;50.952;4.678;2022-10-31T04:52:16;14.40;99.90
24035;DHT22;12242;50.952;4.678;2022-10-31T04:54:46;14.50;99.90
24035;DHT22;12242;50.952;4.678;2022-10-31T04:57:16;14.40;99.90
24035;DHT22;12242;50.952;4.678;2022-10-31T04:59:43;14.50;99.90
24035;DHT22;12242;50.952;4.678;2022-10-31T05:02:11;14.40;99.90
24035;DHT22;12242;50.952;4.678;2022-10-31T05:04:38;14.40;99.90
24035;DHT22;12242;50.952;4.678;2022-10-31T05:07:05;14.40;99.90
24035;DHT22;12242;50.952;4.678;2022-10-31T05:09:35;14.50;99.90
24035;DHT22;12242;50.952;4.678;2022-10-31T05:12:02;14.40;99.90
24035;DHT22;12242;50.952;4.678;2022-10-31T05:14:29;14.30;99.90
24035;DHT22;12242;50.952;4.678;2022-10-31T05:16:59;14.30;99.90
24035;DHT22;12242;50.952;4.678;2022-10-31T05:19:26;14.30;99.90
24035;DHT22;12242;50.952;4.678;2022-10-31T05:21:53;14.40;99.90
24035;DHT22;12242;50.952;4.678;2022-10-31T05:24:20;14.50;99.90
24035;DHT22;12242;50.952;4.678;2022-10-31T05:26:49;14.50;99.90
24035;DHT22;12242;50.952;4.678;2022-10-31T05:29:16;14.50;99.90
24035;DHT22;12242;50.952;4.678;2022-10-31T05:31:43;14.40;99.90
24035;DHT22;12242;50.952;4.678;2022-10-31T05:34:10;14.40;99.90
24035;DHT22;12242;50.952;4.678;2022-10-31T05:36:38;14.40;99.90
24035;DHT22;12242;50.952;4.678;2022-10-31T05:39:05;14.50;99.90
24035;DHT22;12242;50.952;4.678;2022-10-31T05:41:34;14.40;99.90
24035;DHT22;12242;50.952;4.678;2022-10-31T05:44:02;14.20;99.90
24035;DHT22;12242;50.952;4.678;2022-10-31T05:46:29;14.30;99.90
24035;DHT22;12242;50.952;4.678;2022-10-31T05:49:03;14.20;99.90
24035;DHT22;12242;50.952;4.678;2022-10-31T05:51:30;14.20;99.90
24035;DHT22;12242;50.952;4.678;2022-10-31T05:54:00;14.30;99.90
24035;DHT22;12242;50.952;4.678;2022-10-31T05:56:27;14.30;99.90
24035;DHT22;12242;50.952;4.678;2022-10-31T05:58:54;14.30;99.90
24035;DHT22;12242;50.952;4.678;2022-10-31T06:01:21;14.40;99.90
24035;DHT22;12242;50.952;4.678;2022-10-31T06:03:49;14.50;99.90
24035;DHT22;12242;50.952;4.678;2022-10-31T06:06:16;14.60;99.90
24035;DHT22;12242;50.952;4.678;2022-10-31T06:08:44;14.60;99.90
24035;DHT22;12242;50.952;4.678;2022-10-31T06:11:11;14.50;99.90
24035;DHT22;12242;50.952;4.678;2022-10-31T06:13:38;14.60;99.90
24035;DHT22;12242;50.952;4.678;2022-10-31T06:16:08;14.60;99.90
24035;DHT22;12242;50.952;4.678;2022-10-31T06:18:35;14.50;99.90
24035;DHT22;12242;50.952;4.678;2022-10-31T06:21:05;14.50;99.90
24035;DHT22;12242;50.952;4.678;2022-10-31T06:23:34;14.50;99.90
24035;DHT22;12242;50.952;4.678;2022-10-31T06:26:01;14.60;99.90
24035;DHT22;12242;50.952;4.678;2022-10-31T06:28:28;14.60;99.90
24035;DHT22;12242;50.952;4.678;2022-10-31T06:30:56;14.60;99.90
24035;DHT22;12242;50.952;4.678;2022-10-31T06:33:23;14.60;99.90
24035;DHT22;12242;50.952;4.678;2022-10-31T06:35:50;14.60;99.90
24035;DHT22;12242;50.952;4.678;2022-10-31T06:38:20;14.60;99.90
24035;DHT22;12242;50.952;4.678;2022-10-31T06:40:52;14.50;99.90
24035;DHT22;12242;50.952;4.678;2022-10-31T06:43:24;14.60;99.90
24035;DHT22;12242;50.952;4.678;2022-10-31T06:45:53;14.60;99.90
24035;DHT22;12242;50.952;4.678;2022-10-31T06:48:20;14.60;99.90
24035;DHT22;12242;50.952;4.678;2022-10-31T06:50:48;14.60;99.90
24035;DHT22;12242;50.952;4.678;2022-10-31T06:53:24;14.60;99.90
24035;DHT22;12242;50.952;4.678;2022-10-31T06:55:51;14.60;99.90
24035;DHT22;12242;50.952;4.678;2022-10-31T06:58:18;14.70;99.90
24035;DHT22;12242;50.952;4.678;2022-10-31T07:00:46;14.80;99.90
24035;DHT22;12242;50.952;4.678;2022-10-31T07:03:14;14.80;99.90
24035;DHT22;12242;50.952;4.678;2022-10-31T07:05:43;14.80;99.90
24035;DHT22;12242;50.952;4.678;2022-10-31T07:08:12;14.80;99.90
24035;DHT22;12242;50.952;4.678;2022-10-31T07:10:41;14.70;99.90
24035;DHT22;12242;50.952;4.678;2022-10-31T07:13:15;14.80;99.90
24035;DHT22;12242;50.952;4.678;2022-10-31T07:15:45;14.80;99.90
24035;DHT22;12242;50.952;4.678;2022-10-31T07:18:15;14.80;99.90
24035;DHT22;12242;50.952;4.678;2022-10-31T07:20:42;14.70;99.90
24035;DHT22;12242;50.952;4.678;2022-10-31T07:23:10;14.80;99.90
24035;DHT22;12242;50.952;4.678;2022-10-31T07:25:38;14.80;99.90
24035;DHT22;12242;50.952;4.678;2022-10-31T07:28:09;14.90;99.90
24035;DHT22;12242;50.952;4.678;2022-10-31T07:30:39;14.90;99.90
24035;DHT22;12242;50.952;4.678;2022-10-31T07:33:06;14.90;99.90
24035;DHT22;12242;50.952;4.678;2022-10-31T07:35:38;15.00;99.90
24035;DHT22;12242;50.952;4.678;2022-10-31T07:38:14;15.00;99.90
24035;DHT22;12242;50.952;4.678;2022-10-31T07:40:42;15.10;99.90
24035;DHT22;12242;50.952;4.678;2022-10-31T07:43:15;15.10;99.90
24035;DHT22;12242;50.952;4.678;2022-10-31T07:45:52;15.10;99.90
24035;DHT22;12242;50.952;4.678;2022-10-31T07:48:19;15.10;99.90
24035;DHT22;12242;50.952;4.678;2022-10-31T07:50:47;15.30;99.90
24035;DHT22;12242;50.952;4.678;2022-10-31T07:53:15;15.30;99.90
24035;DHT22;12242;50.952;4.678;2022-10-31T07:55:43;15.30;99.90
24035;DHT22;12242;50.952;4.678;2022-10-31T07:58:17;15.40;99.90
24035;DHT22;12242;50.952;4.678;2022-10-31T08:00:45;15.40;99.90
24035;DHT22;12242;50.952;4.678;2022-10-31T08:03:16;15.50;99.90
24035;DHT22;12242;50.952;4.678;2022-10-31T08:05:44;15.60;99.90
24035;DHT22;12242;50.952;4.678;2022-10-31T08:08:14;15.70;99.90
24035;DHT22;12242;50.952;4.678;2022-10-31T08:10:44;15.90;99.90
24035;DHT22;12242;50.952;4.678;2022-10-31T08:13:13;15.90;99.90
24035;DHT22;12242;50.952;4.678;2022-10-31T08:15:41;16.00;99.90
24035;DHT22;12242;50.952;4.678;2022-10-31T08:18:14;16.10;99.90
24035;DHT22;12242;50.952;4.678;2022-10-31T08:20:44;16.00;99.90
24035;DHT22;12242;50.952;4.678;2022-10-31T08:23:12;15.80;99.90
24035;DHT22;12242;50.952;4.678;2022-10-31T08:25:42;15.80;99.90
24035;DHT22;12242;50.952;4.678;2022-10-31T08:28:10;15.70;99.90
24035;DHT22;12242;50.952;4.678;2022-10-31T08:30:41;15.70;99.90
24035;DHT22;12242;50.952;4.678;2022-10-31T08:33:18;15.90;99.90
24035;DHT22;12242;50.952;4.678;2022-10-31T08:35:47;16.00;99.90
24035;DHT22;12242;50.952;4.678;2022-10-31T08:38:15;16.00;99.90
24035;DHT22;12242;50.952;4.678;2022-10-31T08:40:43;16.20;99.90
24035;DHT22;12242;50.952;4.678;2022-10-31T08:43:15;16.20;99.90
24035;DHT22;12242;50.952;4.678;2022-10-31T08:45:47;16.30;99.90
24035;DHT22;12242;50.952;4.678;2022-10-31T08:48:16;16.10;99.90
24035;DHT22;12242;50.952;4.678;2022-10-31T08:50:46;16.20;99.90
24035;DHT22;12242;50.952;4.678;2022-10-31T08:53:18;16.40;99.90
24035;DHT22;12242;50.952;4.678;2022-10-31T08:55:46;16.60;99.90
24035;DHT22;12242;50.952;4.678;2022-10-31T08:58:15;16.30;99.90
24035;DHT22;12242;50.952;4.678;2022-10-31T09:00:44;16.10;99.90
24035;DHT22;12242;50.952;4.678;2022-10-31T09:03:14;15.90;99.90
24035;DHT22;12242;50.952;4.678;2022-10-31T09:05:41;16.10;99.90
24035;DHT22;12242;50.952;4.678;2022-10-31T09:08:09;16.10;99.90
24035;DHT22;12242;50.952;4.678;2022-10-31T09:10:42;16.10;99.90
24035;DHT22;12242;50.952;4.678;2022-10-31T09:13:12;15.90;99.90
24035;DHT22;12242;50.952;4.678;2022-10-31T09:15:43;16.00;99.90
24035;DHT22;12242;50.952;4.678;2022-10-31T09:18:11;16.00;99.90
24035;DHT22;12242;50.952;4.678;2022-10-31T09:20:40;16.00;99.90
24035;DHT22;12242;50.952;4.678;2022-10-31T09:23:16;16.20;99.90
24035;DHT22;12242;50.952;4.678;2022-10-31T09:25:44;16.50;99.90
24035;DHT22;12242;50.952;4.678;2022-10-31T09:28:21;16.80;99.90
24035;DHT22;12242;50.952;4.678;2022-10-31T09:30:51;16.90;99.90
24035;DHT22;12242;50.952;4.678;2022-10-31T09:33:19;17.10;99.90
24035;DHT22;12242;50.952;4.678;2022-10-31T09:35:48;17.30;99.90
24035;DHT22;12242;50.952;4.678;2022-10-31T09:38:22;17.60;99.90
24035;DHT22;12242;50.952;4.678;2022-10-31T09:47:09;18.00;99.90
24035;DHT22;12242;50.952;4.678;2022-10-31T09:50:14;17.80;99.90
24035;DHT22;12242;50.952;4.678;2022-10-31T09:52:56;17.60;99.90
24035;DHT22;12242;50.952;4.678;2022-10-31T09:55:41;17.10;99.90
24035;DHT22;12242;50.952;4.678;2022-10-31T09:58:18;16.70;99.90
24035;DHT22;12242;50.952;4.678;2022-10-31T10:00:47;16.70;99.90
24035;DHT22;12242;50.952;4.678;2022-10-31T10:03:28;16.90;99.90
24035;DHT22;12242;50.952;4.678;2022-10-31T10:06:19;17.20;99.90
24035;DHT22;12242;50.952;4.678;2022-10-31T10:08:48;17.70;99.90
24035;DHT22;12242;50.952;4.678;2022-10-31T10:11:35;17.90;99.90
24035;DHT22;12242;50.952;4.678;2022-10-31T10:14:31;17.90;99.90
24035;DHT22;12242;50.952;4.678;2022-10-31T10:20:34;18.10;99.90
24035;DHT22;12242;50.952;4.678;2022-10-31T10:26:17;18.30;99.90
24035;DHT22;12242;50.952;4.678;2022-10-31T10:28:49;18.20;99.90
24035;DHT22;12242;50.952;4.678;2022-10-31T10:31:24;18.10;99.90
24035;DHT22;12242;50.952;4.678;2022-10-31T10:34:01;18.00;99.90
24035;DHT22;12242;50.952;4.678;2022-10-31T10:37:25;18.10;99.90
24035;DHT22;12242;50.952;4.678;2022-10-31T10:39:41;18.00;99.90
24035;DHT22;12242;50.952;4.678;2022-10-31T10:42:13;17.70;99.90
24035;DHT22;12242;50.952;4.678;2022-10-31T10:44:59;17.80;99.90
24035;DHT22;12242;50.952;4.678;2022-10-31T10:47:54;17.80;99.90
24035;DHT22;12242;50.952;4.678;2022-10-31T10:50:34;17.70;99.90
24035;DHT22;12242;50.952;4.678;2022-10-31T10:53:24;17.90;99.90
24035;DHT22;12242;50.952;4.678;2022-10-31T10:56:20;17.90;99.90
24035;DHT22;12242;50.952;4.678;2022-10-31T10:58:52;17.90;99.90
24035;DHT22;12242;50.952;4.678;2022-10-31T11:01:22;18.10;99.90
24035;DHT22;12242;50.952;4.678;2022-10-31T11:03:49;18.20;99.90
24035;DHT22;12242;50.952;4.678;2022-10-31T11:06:22;18.40;99.90
24035;DHT22;12242;50.952;4.678;2022-10-31T11:08:55;18.80;99.90
24035;DHT22;12242;50.952;4.678;2022-10-31T11:11:23;18.80;99.90
24035;DHT22;12242;50.952;4.678;2022-10-31T11:14:05;18.80;99.90
24035;DHT22;12242;50.952;4.678;2022-10-31T11:16:45;18.70;99.90
24035;DHT22;12242;50.952;4.678;2022-10-31T11:19:25;18.90;99.90
24035;DHT22;12242;50.952;4.678;2022-10-31T11:21:54;18.90;99.90
24035;DHT22;12242;50.952;4.678;2022-10-31T11:24:25;19.00;99.90
24035;DHT22;12242;50.952;4.678;2022-10-31T11:27:14;19.30;99.90
24035;DHT22;12242;50.952;4.678;2022-10-31T11:29:44;19.40;99.90
24035;DHT22;12242;50.952;4.678;2022-10-31T11:32:22;19.70;99.90
24035;DHT22;12242;50.952;4.678;2022-10-31T11:35:02;20.00;99.90
24035;DHT22;12242;50.952;4.678;2022-10-31T11:37:41;20.20;99.90
24035;DHT22;12242;50.952;4.678;2022-10-31T11:40:19;20.50;99.90
24035;DHT22;12242;50.952;4.678;2022-10-31T11:42:48;20.80;99.90
24035;DHT22;12242;50.952;4.678;2022-10-31T11:47:56;21.10;99.90
24035;DHT22;12242;50.952;4.678;2022-10-31T11:50:34;21.60;99.90
24035;DHT22;12242;50.952;4.678;2022-10-31T11:53:03;21.80;99.90
24035;DHT22;12242;50.952;4.678;2022-10-31T11:55:35;21.30;99.90
24035;DHT22;12242;50.952;4.678;2022-10-31T11:58:04;21.20;99.90
24035;DHT22;12242;50.952;4.678;2022-10-31T12:03:25;22.00;99.90
24035;DHT22;12242;50.952;4.678;2022-10-31T12:06:07;22.20;99.90
24035;DHT22;12242;50.952;4.678;2022-10-31T12:08:38;22.20;99.90
24035;DHT22;12242;50.952;4.678;2022-10-31T12:19:43;22.70;99.90
24035;DHT22;12242;50.952;4.678;2022-10-31T12:22:23;23.60;99.90
24035;DHT22;12242;50.952;4.678;2022-10-31T12:28:11;24.20;99.90
24035;DHT22;12242;50.952;4.678;2022-10-31T12:41:16;25.10;99.90
24035;DHT22;12242;50.952;4.678;2022-10-31T12:43:57;25.50;99.90
24035;DHT22;12242;50.952;4.678;2022-10-31T12:52:03;25.00;99.90
24035;DHT22;12242;50.952;4.678;2022-10-31T12:54:55;25.10;99.50
24035;DHT22;12242;50.952;4.678;2022-10-31T13:00:12;26.30;99.90
24035;DHT22;12242;50.952;4.678;2022-10-31T13:05:44;26.30;98.40
24035;DHT22;12242;50.952;4.678;2022-10-31T13:08:20;26.90;98.30
24035;DHT22;12242;50.952;4.678;2022-10-31T13:10:59;26.60;97.40
24035;DHT22;12242;50.952;4.678;2022-10-31T13:13:41;26.30;96.50
24035;DHT22;12242;50.952;4.678;2022-10-31T13:16:23;26.30;97.80
24035;DHT22;12242;50.952;4.678;2022-10-31T13:21:27;24.60;98.80
24035;DHT22;12242;50.952;4.678;2022-10-31T13:23:59;24.40;99.10
24035;DHT22;12242;50.952;4.678;2022-10-31T13:26:43;24.30;99.60
24035;DHT22;12242;50.952;4.678;2022-10-31T13:31:49;24.00;99.90
24035;DHT22;12242;50.952;4.678;2022-10-31T13:34:40;24.00;99.90
24035;DHT22;12242;50.952;4.678;2022-10-31T13:37:30;24.00;99.90
24035;DHT22;12242;50.952;4.678;2022-10-31T13:42:57;24.60;99.90
24035;DHT22;12242;50.952;4.678;2022-10-31T13:45:29;24.20;99.90
24035;DHT22;12242;50.952;4.678;2022-10-31T13:51:00;24.50;99.90
24035;DHT22;12242;50.952;4.678;2022-10-31T13:59:21;24.30;99.90
24035;DHT22;12242;50.952;4.678;2022-10-31T14:01:59;24.20;99.70
24035;DHT22;12242;50.952;4.678;2022-10-31T14:04:32;24.00;99.70
24035;DHT22;12242;50.952;4.678;2022-10-31T14:07:09;23.80;99.90
24035;DHT22;12242;50.952;4.678;2022-10-31T14:12:37;23.70;99.90
24035;DHT22;12242;50.952;4.678;2022-10-31T14:15:25;23.70;99.90
24035;DHT22;12242;50.952;4.678;2022-10-31T14:18:06;23.80;99.90
24035;DHT22;12242;50.952;4.678;2022-10-31T14:20:38;24.00;99.90
24035;DHT22;12242;50.952;4.678;2022-10-31T14:28:48;24.10;99.90
24035;DHT22;12242;50.952;4.678;2022-10-31T14:34:50;24.30;99.90
24035;DHT22;12242;50.952;4.678;2022-10-31T14:43:54;23.60;99.90
24035;DHT22;12242;50.952;4.678;2022-10-31T14:49:05;23.20;99.90
24035;DHT22;12242;50.952;4.678;2022-10-31T14:51:42;23.30;99.90
24035;DHT22;12242;50.952;4.678;2022-10-31T14:54:15;23.20;99.90
24035;DHT22;12242;50.952;4.678;2022-10-31T14:56:53;23.30;99.90
24035;DHT22;12242;50.952;4.678;2022-10-31T14:59:26;23.10;99.90
24035;DHT22;12242;50.952;4.678;2022-10-31T15:02:02;22.80;99.90
24035;DHT22;12242;50.952;4.678;2022-10-31T15:04:35;22.90;99.90
24035;DHT22;12242;50.952;4.678;2022-10-31T15:07:19;22.70;99.90
24035;DHT22;12242;50.952;4.678;2022-10-31T15:09:59;22.90;99.90
24035;DHT22;12242;50.952;4.678;2022-10-31T15:12:32;23.10;99.90
24035;DHT22;12242;50.952;4.678;2022-10-31T15:15:21;23.10;99.90
24035;DHT22;12242;50.952;4.678;2022-10-31T15:17:59;22.80;99.90
24035;DHT22;12242;50.952;4.678;2022-10-31T15:20:30;22.50;99.90
24035;DHT22;12242;50.952;4.678;2022-10-31T15:22:58;22.40;99.90
24035;DHT22;12242;50.952;4.678;2022-10-31T15:25:33;21.80;99.90
24035;DHT22;12242;50.952;4.678;2022-10-31T15:28:01;21.50;99.90
24035;DHT22;12242;50.952;4.678;2022-10-31T15:30:51;21.10;99.90
24035;DHT22;12242;50.952;4.678;2022-10-31T15:33:27;20.90;99.90
24035;DHT22;12242;50.952;4.678;2022-10-31T15:36:03;20.60;99.90
24035;DHT22;12242;50.952;4.678;2022-10-31T15:38:31;20.70;99.90
24035;DHT22;12242;50.952;4.678;2022-10-31T15:41:05;20.80;99.90
24035;DHT22;12242;50.952;4.678;2022-10-31T15:43:46;20.40;99.90
24035;DHT22;12242;50.952;4.678;2022-10-31T15:46:16;20.40;99.90
24035;DHT22;12242;50.952;4.678;2022-10-31T15:48:48;20.40;99.90
24035;DHT22;12242;50.952;4.678;2022-10-31T15:51:18;20.40;99.90
24035;DHT22;12242;50.952;4.678;2022-10-31T15:53:53;20.40;99.90
24035;DHT22;12242;50.952;4.678;2022-10-31T15:56:25;20.50;99.90
24035;DHT22;12242;50.952;4.678;2022-10-31T15:58:58;20.30;99.90
24035;DHT22;12242;50.952;4.678;2022-10-31T16:01:32;20.30;99.90
24035;DHT22;12242;50.952;4.678;2022-10-31T16:04:20;20.20;99.90
24035;DHT22;12242;50.952;4.678;2022-10-31T16:07:12;20.00;99.90
24035;DHT22;12242;50.952;4.678;2022-10-31T16:09:59;20.00;99.90
24035;DHT22;12242;50.952;4.678;2022-10-31T16:12:36;20.00;99.90
24035;DHT22;12242;50.952;4.678;2022-10-31T16:15:05;20.10;99.90
24035;DHT22;12242;50.952;4.678;2022-10-31T16:17:33;20.10;99.90
24035;DHT22;12242;50.952;4.678;2022-10-31T16:20:04;20.10;99.90
24035;DHT22;12242;50.952;4.678;2022-10-31T16:22:36;20.00;99.90
24035;DHT22;12242;50.952;4.678;2022-10-31T16:25:11;19.70;99.90
24035;DHT22;12242;50.952;4.678;2022-10-31T16:27:39;19.10;99.90
24035;DHT22;12242;50.952;4.678;2022-10-31T16:32:58;18.90;99.90
24035;DHT22;12242;50.952;4.678;2022-10-31T16:35:36;18.90;99.90
24035;DHT22;12242;50.952;4.678;2022-10-31T16:38:05;18.90;99.90
24035;DHT22;12242;50.952;4.678;2022-10-31T16:40:32;18.90;99.90
24035;DHT22;12242;50.952;4.678;2022-10-31T16:43:03;19.00;99.90
24035;DHT22;12242;50.952;4.678;2022-10-31T16:45:35;18.90;99.90
24035;DHT22;12242;50.952;4.678;2022-10-31T16:48:11;18.90;99.90
24035;DHT22;12242;50.952;4.678;2022-10-31T16:50:42;18.90;99.90
24035;DHT22;12242;50.952;4.678;2022-10-31T16:53:13;19.00;99.90
24035;DHT22;12242;50.952;4.678;2022-10-31T16:55:54;18.90;99.90
24035;DHT22;12242;50.952;4.678;2022-10-31T16:58:27;18.80;99.90
24035;DHT22;12242;50.952;4.678;2022-10-31T17:00:57;18.70;99.90
24035;DHT22;12242;50.952;4.678;2022-10-31T17:03:25;18.60;99.90
24035;DHT22;12242;50.952;4.678;2022-10-31T17:05:52;18.60;99.90
24035;DHT22;12242;50.952;4.678;2022-10-31T17:08:24;18.60;99.90
24035;DHT22;12242;50.952;4.678;2022-10-31T17:10:55;18.50;99.90
24035;DHT22;12242;50.952;4.678;2022-10-31T17:13:29;18.50;99.90
24035;DHT22;12242;50.952;4.678;2022-10-31T17:16:01;18.50;99.90
24035;DHT22;12242;50.952;4.678;2022-10-31T17:18:29;18.50;99.90
24035;DHT22;12242;50.952;4.678;2022-10-31T17:21:01;18.50;99.90
24035;DHT22;12242;50.952;4.678;2022-10-31T17:23:34;18.30;99.90
24035;DHT22;12242;50.952;4.678;2022-10-31T17:26:09;18.30;99.90
24035;DHT22;12242;50.952;4.678;2022-10-31T17:28:37;18.40;99.90
24035;DHT22;12242;50.952;4.678;2022-10-31T17:31:04;18.40;99.90
24035;DHT22;12242;50.952;4.678;2022-10-31T17:33:36;18.40;99.90
24035;DHT22;12242;50.952;4.678;2022-10-31T17:36:03;18.50;99.90
24035;DHT22;12242;50.952;4.678;2022-10-31T17:38:31;18.60;99.90
24035;DHT22;12242;50.952;4.678;2022-10-31T17:40:58;18.60;99.90
24035;DHT22;12242;50.952;4.678;2022-10-31T17:43:25;18.60;99.90
24035;DHT22;12242;50.952;4.678;2022-10-31T17:45:58;18.70;99.90
24035;DHT22;12242;50.952;4.678;2022-10-31T17:48:26;18.70;99.90
24035;DHT22;12242;50.952;4.678;2022-10-31T17:50:58;18.70;99.90
24035;DHT22;12242;50.952;4.678;2022-10-31T17:53:31;18.60;99.90
24035;DHT22;12242;50.952;4.678;2022-10-31T17:56:08;18.60;99.90
24035;DHT22;12242;50.952;4.678;2022-10-31T17:58:37;18.70;99.90
24035;DHT22;12242;50.952;4.678;2022-10-31T18:01:12;18.60;99.90
24035;DHT22;12242;50.952;4.678;2022-10-31T18:03:40;18.50;99.90
24035;DHT22;12242;50.952;4.678;2022-10-31T18:06:08;18.50;99.90
24035;DHT22;12242;50.952;4.678;2022-10-31T18:08:39;18.50;99.90
24035;DHT22;12242;50.952;4.678;2022-10-31T18:11:15;18.50;99.90